Time;durP1;ratioP1;P1;durP2;ratioP2;P2;SDS_P1;SDS_P2;PMS_P1;PMS_P2;Temp;Humidity;BMP_temperature;BMP_pressure;BME280_temperature;BME280_humidity;BME280_pressure;Samples;Min_cycle;Max_cycle;Signal;HPM_P1;HPM_P2
2022/07/11 00:02:14;;;;;;;5.00;2.53;;;20.80;76.20;;;;;;4995135;28;20452;-71
2022/07/11 00:04:43;;;;;;;2.60;2.40;;;20.80;76.50;;;;;;4994912;28;20471;-71
2022/07/11 00:07:11;;;;;;;4.63;2.53;;;20.80;76.70;;;;;;4994764;28;20979;-71
2022/07/11 00:09:38;;;;;;;3.70;2.30;;;20.70;76.70;;;;;;4995123;28;20824;-71
2022/07/11 00:12:06;;;;;;;2.87;2.13;;;20.80;76.50;;;;;;4994633;28;20460;-71
2022/07/11 00:14:34;;;;;;;5.13;2.43;;;20.80;76.70;;;;;;4994648;28;21018;-71
2022/07/11 00:17:01;;;;;;;4.97;2.77;;;20.80;76.70;;;;;;4994552;28;20830;-71
2022/07/11 00:19:28;;;;;;;5.33;3.10;;;20.70;76.90;;;;;;4994894;28;20447;-71
2022/07/11 00:21:55;;;;;;;3.17;2.87;;;20.70;76.80;;;;;;4994970;28;20448;-71
2022/07/11 00:24:24;;;;;;;4.23;2.47;;;20.70;77.30;;;;;;4994601;28;20564;-71
2022/07/11 00:26:51;;;;;;;5.57;3.17;;;20.70;77.50;;;;;;4994464;28;20944;-71
2022/07/11 00:29:18;;;;;;;4.90;2.90;;;20.70;77.50;;;;;;4994415;28;20951;-71
2022/07/11 00:31:46;;;;;;;6.30;3.57;;;20.70;77.80;;;;;;4994835;28;20450;-71
2022/07/11 00:34:14;;;;;;;3.20;2.70;;;20.70;77.80;;;;;;4994439;28;20488;-71
2022/07/11 00:36:41;;;;;;;3.77;2.93;;;20.70;77.80;;;;;;4994796;28;20452;-70
2022/07/11 00:39:08;;;;;;;5.43;3.20;;;20.70;78.00;;;;;;4994707;28;20451;-70
2022/07/11 00:41:35;;;;;;;4.77;3.13;;;20.70;78.30;;;;;;4994670;28;20452;-71
2022/07/11 00:44:02;;;;;;;5.90;3.10;;;20.60;78.50;;;;;;4994132;28;20496;-71
2022/07/11 00:46:30;;;;;;;4.33;3.10;;;20.60;78.80;;;;;;4994617;28;20451;-70
2022/07/11 00:48:59;;;;;;;3.83;3.50;;;20.60;78.90;;;;;;4994539;28;20511;-70
2022/07/11 00:51:27;;;;;;;2.90;2.70;;;20.50;79.20;;;;;;4994391;28;20452;-70
2022/07/11 00:53:55;;;;;;;6.23;2.80;;;20.50;79.40;;;;;;4994309;28;20472;-71
2022/07/11 00:56:24;;;;;;;5.00;3.53;;;20.50;79.80;;;;;;4994317;28;20511;-71
2022/07/11 00:58:52;;;;;;;4.33;3.20;;;20.50;79.80;;;;;;4994005;28;20951;-70
2022/07/11 01:01:20;;;;;;;5.30;3.50;;;20.40;80.10;;;;;;4993751;28;20463;-70
2022/07/11 01:03:48;;;;;;;5.87;3.27;;;20.40;80.60;;;;;;4994221;28;21014;-70
2022/07/11 01:06:16;;;;;;;6.20;3.23;;;20.40;80.70;;;;;;4993784;28;20453;-71
2022/07/11 01:08:43;;;;;;;3.63;3.33;;;20.40;80.80;;;;;;4993911;28;20855;-71
2022/07/11 01:11:15;;;;;;;5.43;3.50;;;20.40;80.60;;;;;;4994113;28;20912;-70
2022/07/11 01:13:42;;;;;;;5.10;3.20;;;20.40;81.00;;;;;;4994377;28;20468;-70
2022/07/11 01:16:15;;;;;;;4.33;3.93;;;20.40;80.90;;;;;;4993932;28;20472;-70
2022/07/11 01:18:46;;;;;;;5.57;2.93;;;20.40;81.10;;;;;;4994627;28;20448;-70
2022/07/11 01:21:30;;;;;;;6.83;3.80;;;20.30;80.90;;;;;;4994156;28;20452;-70
2022/07/11 01:23:59;;;;;;;4.10;3.03;;;20.30;80.90;;;;;;4991728;28;20480;-70
2022/07/11 01:26:27;;;;;;;4.90;3.40;;;20.30;81.00;;;;;;4994057;28;20436;-70
2022/07/11 01:28:57;;;;;;;3.57;3.23;;;20.30;81.00;;;;;;4994002;28;20451;-70
2022/07/11 01:31:26;;;;;;;5.77;3.53;;;20.30;81.00;;;;;;4993744;28;20495;-71
2022/07/11 01:33:53;;;;;;;5.80;3.50;;;20.20;81.00;;;;;;4994071;28;20483;-70
2022/07/11 01:36:20;;;;;;;4.50;3.50;;;20.20;81.20;;;;;;4993739;28;20488;-70
2022/07/11 01:38:46;;;;;;;4.57;3.00;;;20.20;81.30;;;;;;4993809;28;20478;-72
2022/07/11 01:41:14;;;;;;;4.10;3.70;;;20.10;81.30;;;;;;4993499;28;20456;-70
2022/07/11 01:43:42;;;;;;;3.93;3.20;;;20.10;81.20;;;;;;4993787;28;20476;-70
2022/07/11 01:46:09;;;;;;;3.53;2.97;;;20.10;81.20;;;;;;4993886;28;20459;-70
2022/07/11 01:48:35;;;;;;;5.20;3.13;;;20.10;81.20;;;;;;4993663;28;20452;-70
2022/07/11 01:51:02;;;;;;;4.97;3.43;;;20.10;81.20;;;;;;4993780;28;20826;-70
2022/07/11 01:53:29;;;;;;;5.30;3.43;;;20.10;81.20;;;;;;4993343;28;20472;-71
2022/07/11 01:55:57;;;;;;;4.00;3.50;;;20.10;81.20;;;;;;4993696;28;20483;-70
2022/07/11 01:58:25;;;;;;;5.10;3.10;;;20.00;81.00;;;;;;4993772;28;20456;-70
2022/07/11 02:00:52;;;;;;;3.40;3.10;;;20.00;81.00;;;;;;4993632;28;20455;-70
2022/07/11 02:03:19;;;;;;;5.83;3.10;;;20.00;80.90;;;;;;4993572;28;20448;-70
2022/07/11 02:05:45;;;;;;;6.10;2.90;;;19.90;80.90;;;;;;4993661;28;20447;-70
2022/07/11 02:08:15;;;;;;;8.27;3.30;;;19.90;80.90;;;;;;4993643;28;20432;-70
2022/07/11 02:10:44;;;;;;;6.43;3.93;;;19.90;80.90;;;;;;4993271;28;20983;-70
2022/07/11 02:13:13;;;;;;;4.40;3.40;;;19.90;81.00;;;;;;4994119;28;20502;-70
2022/07/11 02:15:42;;;;;;;3.77;2.83;;;19.80;80.90;;;;;;4997208;28;20492;-70
2022/07/11 02:18:10;;;;;;;4.20;3.00;;;19.80;81.10;;;;;;4997160;28;20451;-70
2022/07/11 02:20:37;;;;;;;5.30;3.77;;;19.70;81.00;;;;;;4996856;28;20463;-70
2022/07/11 02:23:04;;;;;;;3.33;3.13;;;19.70;81.20;;;;;;4996818;28;20839;-70
2022/07/11 02:25:32;;;;;;;5.80;3.70;;;19.50;81.30;;;;;;4996871;28;20468;-70
2022/07/11 02:27:59;;;;;;;3.77;3.47;;;19.50;81.90;;;;;;4996923;28;20455;-70
2022/07/11 02:30:27;;;;;;;3.90;3.60;;;19.30;82.10;;;;;;4996842;28;20452;-70
2022/07/11 02:32:55;;;;;;;4.40;3.93;;;19.20;82.40;;;;;;4997046;28;20467;-70
2022/07/11 02:35:22;;;;;;;4.30;3.70;;;19.20;82.80;;;;;;4996701;28;20588;-70
2022/07/11 02:37:49;;;;;;;5.30;4.10;;;19.10;83.20;;;;;;4996547;28;20550;-70
2022/07/11 02:40:16;;;;;;;5.27;3.77;;;19.00;83.70;;;;;;4996447;28;20943;-70
2022/07/11 02:42:43;;;;;;;5.90;4.60;;;19.00;84.10;;;;;;4996776;28;20460;-70
2022/07/11 02:45:11;;;;;;;6.23;4.57;;;18.90;84.50;;;;;;4996287;28;20487;-70
2022/07/11 02:47:39;;;;;;;5.70;4.20;;;18.80;84.90;;;;;;4996798;28;20478;-70
2022/07/11 02:50:11;;;;;;;6.50;4.53;;;18.70;85.50;;;;;;4996674;28;20456;-70
2022/07/11 02:52:39;;;;;;;7.20;4.70;;;18.60;86.10;;;;;;4996722;28;20440;-70
2022/07/11 02:55:07;;;;;;;7.27;4.33;;;18.50;86.80;;;;;;4996246;28;20495;-70
2022/07/11 02:57:35;;;;;;;6.33;4.40;;;18.40;87.40;;;;;;4996451;28;21021;-70
2022/07/11 03:00:04;;;;;;;5.73;4.80;;;18.30;88.20;;;;;;4996628;28;20877;-70
2022/07/11 03:02:30;;;;;;;5.27;4.67;;;18.20;88.60;;;;;;4996420;28;20486;-70
2022/07/11 03:04:57;;;;;;;8.17;4.27;;;18.20;88.80;;;;;;4996465;28;20845;-70
2022/07/11 03:07:26;;;;;;;5.93;5.40;;;18.20;88.90;;;;;;4996086;28;20487;-70
2022/07/11 03:09:53;;;;;;;7.87;4.90;;;18.20;88.90;;;;;;4996331;28;20452;-70
2022/07/11 03:12:20;;;;;;;9.43;5.60;;;18.30;88.90;;;;;;4996293;28;20472;-70
2022/07/11 03:14:47;;;;;;;6.93;5.30;;;18.30;88.90;;;;;;4995900;28;20984;-70
2022/07/11 03:17:14;;;;;;;6.80;5.73;;;18.30;89.00;;;;;;4996312;28;20448;-70
2022/07/11 03:19:41;;;;;;;9.75;6.30;;;18.20;89.50;;;;;;4995636;28;20812;-70
2022/07/11 03:22:07;;;;;;;6.57;5.90;;;18.20;89.90;;;;;;4996103;28;20205;-70
2022/07/11 03:24:36;;;;;;;9.80;5.53;;;18.10;90.40;;;;;;4995608;28;20487;-70
2022/07/11 03:27:03;;;;;;;7.37;6.17;;;18.10;90.30;;;;;;4996208;28;20454;-70
2022/07/11 03:29:30;;;;;;;6.57;5.87;;;17.90;90.40;;;;;;4995655;28;20453;-70
2022/07/11 03:31:57;;;;;;;12.73;6.70;;;17.90;90.60;;;;;;4996043;28;20956;-70
2022/07/11 03:34:24;;;;;;;13.53;7.10;;;17.90;90.80;;;;;;4995457;28;20857;-70
2022/07/11 03:36:51;;;;;;;6.60;5.90;;;17.80;90.90;;;;;;4995670;28;20490;-70
2022/07/11 03:39:17;;;;;;;9.07;5.60;;;17.80;91.10;;;;;;4995459;28;20452;-70
2022/07/11 03:41:45;;;;;;;5.93;5.33;;;17.90;91.10;;;;;;4995919;28;20479;-70
2022/07/11 03:44:12;;;;;;;6.40;5.80;;;17.90;90.90;;;;;;4995262;28;20492;-71
2022/07/11 03:46:39;;;;;;;6.13;5.53;;;18.00;90.60;;;;;;4995769;28;20440;-70
2022/07/11 03:49:06;;;;;;;6.13;5.53;;;18.10;90.40;;;;;;4995625;28;20464;-70
2022/07/11 03:51:33;;;;;;;6.80;6.07;;;18.10;90.20;;;;;;4995405;28;20795;-70
2022/07/11 03:54:00;;;;;;;7.00;5.83;;;18.20;90.40;;;;;;4995405;28;20988;-70
2022/07/11 03:56:26;;;;;;;6.30;5.70;;;18.20;90.60;;;;;;4995566;28;20928;-70
2022/07/11 03:58:55;;;;;;;8.53;5.60;;;18.20;90.70;;;;;;4995545;28;20834;-70
2022/07/11 04:01:21;;;;;;;8.47;6.50;;;18.30;91.10;;;;;;4995301;28;20458;-70
2022/07/11 04:03:48;;;;;;;10.73;5.30;;;18.30;91.30;;;;;;4995445;28;20479;-70
2022/07/11 04:06:16;;;;;;;6.77;5.93;;;18.30;91.50;;;;;;4995269;28;20499;-70
2022/07/11 04:08:43;;;;;;;7.80;5.77;;;18.30;91.70;;;;;;4995130;28;20456;-70
2022/07/11 04:11:10;;;;;;;8.77;5.80;;;18.40;91.90;;;;;;4995109;28;20456;-70
2022/07/11 04:13:36;;;;;;;8.27;6.10;;;18.40;91.90;;;;;;4995144;28;20472;-70
2022/07/11 04:16:05;;;;;;;6.07;5.43;;;18.50;92.10;;;;;;4994986;28;20555;-70
2022/07/11 04:18:32;;;;;;;6.57;5.97;;;18.50;92.00;;;;;;4994740;28;20827;-70
2022/07/11 04:20:59;;;;;;;6.93;5.77;;;18.60;91.90;;;;;;4995259;28;20459;-70
2022/07/11 04:23:26;;;;;;;9.50;5.90;;;18.60;92.00;;;;;;4994987;28;20448;-70
2022/07/11 04:25:52;;;;;;;5.93;5.43;;;18.60;92.10;;;;;;4994606;28;20440;-70
2022/07/11 04:28:19;;;;;;;6.93;6.23;;;18.70;92.30;;;;;;4995020;28;20452;-70
2022/07/11 04:30:46;;;;;;;7.20;6.50;;;18.70;92.20;;;;;;5019535;23;20492;-66
2022/07/11 04:33:14;;;;;;;7.67;6.00;;;18.80;92.30;;;;;;4994650;28;20475;-68
2022/07/11 04:35:42;;;;;;;6.50;5.80;;;18.90;92.20;;;;;;4994017;28;20863;-69
2022/07/11 04:38:09;;;;;;;12.60;5.50;;;19.00;91.90;;;;;;4994754;28;20445;-69
2022/07/11 04:40:35;;;;;;;4.93;4.53;;;19.00;91.80;;;;;;4995314;28;20444;-68
2022/07/11 04:43:02;;;;;;;7.03;6.37;;;19.10;92.00;;;;;;4995835;28;20449;-69
2022/07/11 04:45:29;;;;;;;6.43;5.10;;;19.10;92.00;;;;;;4994479;28;20483;-69
2022/07/11 04:47:56;;;;;;;5.70;5.03;;;19.20;92.10;;;;;;4994451;28;20465;-68
2022/07/11 04:50:24;;;;;;;6.30;5.57;;;19.20;92.30;;;;;;4994627;28;20507;-69
2022/07/11 04:52:51;;;;;;;5.90;5.13;;;19.20;92.00;;;;;;4994322;28;20452;-68
2022/07/11 04:55:18;;;;;;;6.37;5.20;;;19.20;92.20;;;;;;4994311;28;20458;-68
2022/07/11 04:57:44;;;;;;;8.53;5.53;;;19.20;92.40;;;;;;4994187;28;20864;-68
2022/07/11 05:00:12;;;;;;;6.00;5.40;;;19.30;92.60;;;;;;4994509;28;20463;-68
2022/07/11 05:02:39;;;;;;;5.03;4.53;;;19.30;92.70;;;;;;4994457;28;20502;-68
2022/07/11 05:05:07;;;;;;;6.80;4.73;;;19.30;92.60;;;;;;4994307;28;20459;-68
2022/07/11 05:07:35;;;;;;;5.70;4.97;;;19.30;92.60;;;;;;4994340;28;20477;-68
2022/07/11 05:10:02;;;;;;;8.50;5.70;;;19.40;92.60;;;;;;4994221;28;20448;-68
2022/07/11 05:12:28;;;;;;;6.70;5.40;;;19.40;92.70;;;;;;4993952;28;20811;-68
2022/07/11 05:14:58;;;;;;;6.67;5.37;;;19.50;92.80;;;;;;4993912;28;20463;-68
2022/07/11 05:17:25;;;;;;;7.53;5.20;;;19.50;92.80;;;;;;4994105;28;20498;-68
2022/07/11 05:19:51;;;;;;;7.60;6.27;;;19.50;92.70;;;;;;4994198;28;20463;-68
2022/07/11 05:22:18;;;;;;;6.73;4.80;;;19.50;92.70;;;;;;4994245;28;20448;-68
2022/07/11 05:24:46;;;;;;;8.70;6.27;;;19.60;92.90;;;;;;4993815;28;20824;-68
2022/07/11 05:27:13;;;;;;;6.07;5.20;;;19.50;92.70;;;;;;4993797;28;20464;-68
2022/07/11 05:29:40;;;;;;;5.27;4.70;;;19.60;92.60;;;;;;4994178;28;20467;-68
2022/07/11 05:32:07;;;;;;;6.50;4.80;;;19.60;92.50;;;;;;4994050;28;20464;-68
2022/07/11 05:34:34;;;;;;;4.97;4.30;;;19.70;92.70;;;;;;4994185;28;20464;-68
2022/07/11 05:37:00;;;;;;;6.80;4.87;;;19.70;92.50;;;;;;4993588;28;20480;-68
2022/07/11 05:39:27;;;;;;;6.47;4.30;;;19.80;92.60;;;;;;4994004;28;20460;-68
2022/07/11 05:41:55;;;;;;;5.10;4.57;;;19.80;92.50;;;;;;4994004;28;20453;-68
2022/07/11 05:44:22;;;;;;;6.13;4.00;;;19.90;92.40;;;;;;4993941;28;20507;-68
2022/07/11 05:46:49;;;;;;;4.40;4.00;;;19.90;92.20;;;;;;4993909;28;20468;-68
2022/07/11 05:49:16;;;;;;;7.40;3.30;;;20.00;92.20;;;;;;4997863;28;20459;-68
2022/07/11 05:51:42;;;;;;;5.17;3.90;;;20.00;91.90;;;;;;4997864;28;20539;-68
2022/07/11 05:54:09;;;;;;;5.23;3.33;;;20.10;91.90;;;;;;4997532;28;20432;-68
2022/07/11 05:56:36;;;;;;;6.70;3.67;;;20.10;91.80;;;;;;4997514;28;20499;-69
2022/07/11 05:59:04;;;;;;;5.70;2.67;;;20.10;91.50;;;;;;4997730;28;20488;-70
2022/07/11 06:01:32;;;;;;;7.93;3.50;;;20.20;91.40;;;;;;4997315;28;20448;-67
2022/07/11 06:03:59;;;;;;;3.23;3.03;;;20.20;91.40;;;;;;4997258;28;20833;-67
2022/07/11 06:06:26;;;;;;;4.07;3.27;;;20.10;91.40;;;;;;4997372;28;20534;-67
2022/07/11 06:08:53;;;;;;;6.13;3.00;;;20.20;91.30;;;;;;4997459;28;20455;-67
2022/07/11 06:11:20;;;;;;;3.20;2.57;;;20.20;91.40;;;;;;4997092;28;20506;-67
2022/07/11 06:13:49;;;;;;;4.07;3.03;;;20.20;91.40;;;;;;4997370;28;20539;-68
2022/07/11 06:16:18;;;;;;;5.27;3.03;;;20.20;91.20;;;;;;4997292;28;20480;-68
2022/07/11 06:18:45;;;;;;;3.70;2.90;;;20.20;91.20;;;;;;4997319;28;20455;-68
2022/07/11 06:21:12;;;;;;;4.77;2.87;;;20.20;90.90;;;;;;4997177;28;20444;-68
2022/07/11 06:23:40;;;;;;;6.43;2.80;;;20.20;90.90;;;;;;4996922;28;20447;-68
2022/07/11 06:26:06;;;;;;;3.40;2.33;;;20.20;90.80;;;;;;4997049;28;20468;-68
2022/07/11 06:28:34;;;;;;;3.87;2.90;;;20.30;90.90;;;;;;4996661;28;20795;-68
2022/07/11 06:31:01;;;;;;;5.60;2.13;;;20.30;90.90;;;;;;4996708;28;20834;-68
2022/07/11 06:33:29;;;;;;;4.53;2.50;;;20.30;90.90;;;;;;4996735;28;20437;-68
2022/07/11 06:35:56;;;;;;;6.93;2.30;;;20.30;90.90;;;;;;4996554;28;20837;-68
2022/07/11 06:38:23;;;;;;;2.93;2.00;;;20.40;90.70;;;;;;4996970;28;20448;-68
2022/07/11 06:40:50;;;;;;;2.63;2.10;;;20.40;90.60;;;;;;4996812;28;20452;-68
2022/07/11 06:43:17;;;;;;;4.80;1.70;;;20.40;90.50;;;;;;4996908;28;20457;-68
2022/07/11 06:45:43;;;;;;;1.93;1.57;;;20.50;90.70;;;;;;4996740;28;20468;-68
2022/07/11 06:48:10;;;;;;;3.53;1.93;;;20.50;90.50;;;;;;4996793;28;20456;-68
2022/07/11 06:50:38;;;;;;;1.93;1.60;;;20.50;90.20;;;;;;4996771;28;20445;-68
2022/07/11 06:53:05;;;;;;;1.80;1.50;;;20.50;90.20;;;;;;4996733;28;20451;-68
2022/07/11 06:55:32;;;;;;;3.47;1.87;;;20.60;89.80;;;;;;4996517;28;20448;-68
2022/07/11 06:57:59;;;;;;;3.03;1.80;;;20.60;89.80;;;;;;4996435;28;20491;-68
2022/07/11 07:00:27;;;;;;;3.37;1.97;;;20.60;89.90;;;;;;4995695;28;20452;-68
2022/07/11 07:02:56;;;;;;;4.40;1.80;;;20.70;90.00;;;;;;4996458;28;20478;-68
2022/07/11 07:05:23;;;;;;;4.83;1.80;;;20.70;89.80;;;;;;4996386;28;20444;-68
2022/07/11 07:07:51;;;;;;;3.23;1.77;;;20.80;89.70;;;;;;4996436;28;20440;-68
2022/07/11 07:10:18;;;;;;;6.47;1.73;;;20.90;89.30;;;;;;4996458;28;20452;-68
2022/07/11 07:12:45;;;;;;;4.20;1.60;;;20.90;88.90;;;;;;4996091;28;20988;-68
2022/07/11 07:15:12;;;;;;;2.73;1.67;;;21.00;88.70;;;;;;4996314;28;20796;-68
2022/07/11 07:17:39;;;;;;;3.63;1.80;;;21.10;88.60;;;;;;4996110;28;20491;-69
2022/07/11 07:20:10;;;;;;;2.40;1.83;;;21.10;88.40;;;;;;4997031;28;20456;-70
2022/07/11 07:22:37;;;;;;;2.00;1.47;;;21.20;88.00;;;;;;4996188;28;20451;-70
2022/07/11 07:25:07;;;;;;;3.37;1.97;;;21.20;87.70;;;;;;4996162;28;20448;-70
2022/07/11 07:27:34;;;;;;;4.50;1.73;;;21.30;88.00;;;;;;4996061;28;20680;-70
2022/07/11 07:30:00;;;;;;;3.10;2.00;;;21.30;88.00;;;;;;4995954;28;20459;-70
2022/07/11 07:32:27;;;;;;;3.47;2.20;;;21.30;87.20;;;;;;4995693;28;20484;-69
2022/07/11 07:34:54;;;;;;;3.27;2.03;;;21.30;87.20;;;;;;4995910;28;20455;-70
2022/07/11 07:37:21;;;;;;;4.23;2.10;;;21.30;87.30;;;;;;4995393;28;20850;-69
2022/07/11 07:39:48;;;;;;;4.00;2.33;;;21.30;87.10;;;;;;4995406;28;20972;-69
2022/07/11 07:42:16;;;;;;;6.50;2.20;;;21.30;87.20;;;;;;4995448;28;20977;-69
2022/07/11 07:44:42;;;;;;;3.37;2.00;;;21.30;88.00;;;;;;4995741;28;20832;-70
2022/07/11 07:47:09;;;;;;;3.63;2.07;;;21.40;88.30;;;;;;4995685;28;20476;-70
2022/07/11 07:49:36;;;;;;;7.63;2.07;;;21.60;88.00;;;;;;4995558;28;20463;-69
2022/07/11 07:52:03;;;;;;;2.77;1.70;;;21.80;86.80;;;;;;4995640;28;20463;-69
2022/07/11 07:54:30;;;;;;;3.33;2.27;;;22.10;86.50;;;;;;4995615;28;20448;-70
2022/07/11 07:56:57;;;;;;;6.73;2.00;;;22.40;85.10;;;;;;4995335;28;20490;-69
2022/07/11 07:59:25;;;;;;;6.53;2.30;;;22.60;82.50;;;;;;4995513;28;20448;-69
2022/07/11 08:01:51;;;;;;;3.20;2.27;;;22.90;81.80;;;;;;4995498;28;20448;-69
2022/07/11 08:04:18;;;;;;;2.80;1.70;;;23.10;80.60;;;;;;4995477;28;20446;-70
2022/07/11 08:06:45;;;;;;;2.10;1.57;;;23.40;79.30;;;;;;4995665;28;20221;-69
2022/07/11 08:09:12;;;;;;;6.47;1.83;;;23.50;77.90;;;;;;4995250;28;20451;-69
2022/07/11 08:11:39;;;;;;;2.07;1.87;;;23.50;76.70;;;;;;4994134;28;20452;-69
2022/07/11 08:14:08;;;;;;;3.30;2.47;;;23.40;76.70;;;;;;4995286;28;20457;-69
2022/07/11 08:16:36;;;;;;;4.30;2.03;;;23.30;77.60;;;;;;4995115;28;20546;-69
2022/07/11 08:19:05;;;;;;;2.73;1.77;;;23.20;78.30;;;;;;4994834;28;21009;-70
2022/07/11 08:21:32;;;;;;;6.80;2.33;;;23.00;78.30;;;;;;4995014;28;20475;-69
2022/07/11 08:24:00;;;;;;;4.20;1.70;;;22.90;78.40;;;;;;4995021;28;20821;-70
2022/07/11 08:26:26;;;;;;;3.10;2.40;;;22.90;78.60;;;;;;4994636;28;20999;-69
2022/07/11 08:28:53;;;;;;;8.23;3.47;;;22.90;78.80;;;;;;4994555;28;20459;-70
2022/07/11 08:31:20;;;;;;;8.20;3.10;;;23.00;78.50;;;;;;4994649;28;20466;-69
2022/07/11 08:33:48;;;;;;;12.97;4.30;;;22.90;78.30;;;;;;4994902;28;20449;-70
2022/07/11 08:36:15;;;;;;;3.60;2.10;;;23.00;79.00;;;;;;4994272;28;20483;-69
2022/07/11 08:38:46;;;;;;;15.73;2.60;;;23.00;79.00;;;;;;4994752;28;20457;-69
2022/07/11 08:41:13;;;;;;;4.87;2.20;;;22.90;79.10;;;;;;4994702;28;20445;-69
2022/07/11 08:43:43;;;;;;;10.03;2.03;;;23.00;79.50;;;;;;4995175;28;20452;-70
2022/07/11 08:46:11;;;;;;;14.83;2.13;;;23.00;79.00;;;;;;4994531;28;20472;-69
2022/07/11 08:48:40;;;;;;;6.13;2.47;;;22.90;78.90;;;;;;4994611;28;20440;-70
2022/07/11 08:51:09;;;;;;;1.97;1.47;;;23.00;79.10;;;;;;4994525;28;20479;-70
2022/07/11 08:53:41;;;;;;;5.53;1.70;;;23.00;78.90;;;;;;4994550;28;20449;-70
2022/07/11 08:56:14;;;;;;;4.80;1.60;;;23.20;78.70;;;;;;4994393;28;20546;-69
2022/07/11 08:58:43;;;;;;;3.07;1.53;;;23.30;78.80;;;;;;4994468;28;20468;-70
2022/07/11 09:01:12;;;;;;;5.50;2.00;;;23.70;77.80;;;;;;4994489;28;20459;-69
2022/07/11 09:03:39;;;;;;;2.13;1.80;;;24.20;76.20;;;;;;4994518;28;20506;-70
2022/07/11 09:06:07;;;;;;;3.37;1.93;;;24.60;74.30;;;;;;4994274;28;20475;-69
2022/07/11 09:08:35;;;;;;;7.30;1.77;;;24.90;72.00;;;;;;4994316;28;20454;-70
2022/07/11 09:11:02;;;;;;;1.73;1.30;;;25.10;70.70;;;;;;4994159;28;20444;-69
2022/07/11 09:13:30;;;;;;;2.57;1.60;;;25.20;69.70;;;;;;4994832;28;20448;-70
2022/07/11 09:16:02;;;;;;;3.33;1.63;;;25.30;69.00;;;;;;4994124;28;20504;-70
2022/07/11 09:18:35;;;;;;;2.20;1.27;;;25.40;68.20;;;;;;4993909;28;20477;-70
2022/07/11 09:26:37;;;;;;;1.50;0.90;;;25.60;66.20;;;;;;4994017;28;20456;-69
2022/07/11 09:29:07;;;;;;;1.53;1.20;;;25.70;66.30;;;;;;4994035;28;20458;-69
2022/07/11 09:31:34;;;;;;;8.83;1.30;;;25.80;65.80;;;;;;4993852;28;20468;-69
2022/07/11 09:34:03;;;;;;;1.50;1.07;;;26.00;65.30;;;;;;4994819;28;20459;-69
2022/07/11 09:36:44;;;;;;;3.03;1.27;;;26.30;65.10;;;;;;4993915;28;20464;-70
2022/07/11 09:39:15;;;;;;;2.07;1.10;;;26.50;63.00;;;;;;4993801;28;20881;-69
2022/07/11 09:41:42;;;;;;;1.67;1.00;;;26.70;61.70;;;;;;4994095;28;20559;-69
2022/07/11 09:44:11;;;;;;;3.17;1.07;;;26.80;60.60;;;;;;4994220;28;20448;-70
2022/07/11 09:46:38;;;;;;;1.10;0.87;;;26.80;59.90;;;;;;4994820;28;20472;-69
2022/07/11 09:49:06;;;;;;;1.13;0.80;;;26.70;59.70;;;;;;4993822;28;20455;-68
2022/07/11 09:51:34;;;;;;;2.20;1.33;;;26.50;60.80;;;;;;4993621;28;20475;-68
2022/07/11 09:54:04;;;;;;;2.30;0.87;;;26.40;61.60;;;;;;4993623;28;20474;-68
2022/07/11 09:56:40;;;;;;;6.57;1.43;;;26.50;62.00;;;;;;4993512;28;21008;-68
2022/07/11 09:59:08;;;;;;;1.97;1.07;;;26.70;61.50;;;;;;4994213;28;20440;-68
2022/07/11 10:01:35;;;;;;;3.80;1.20;;;26.70;60.30;;;;;;4994159;28;20440;-68
2022/07/11 10:04:02;;;;;;;17.43;3.80;;;26.80;60.50;;;;;;4993947;28;20823;-68
2022/07/11 10:06:29;;;;;;;9.27;2.60;;;26.90;60.10;;;;;;4993799;28;20474;-68
2022/07/11 10:08:56;;;;;;;1.87;0.97;;;26.90;59.40;;;;;;4993379;28;20440;-68
2022/07/11 10:11:23;;;;;;;0.87;0.70;;;26.90;59.00;;;;;;4993806;28;20456;-68
2022/07/11 10:13:52;;;;;;;0.87;0.80;;;26.90;59.20;;;;;;4993747;28;20452;-68
2022/07/11 10:16:43;;;;;;;1.33;0.70;;;26.90;58.80;;;;;;4993482;28;20480;-68
2022/07/11 10:19:19;;;;;;;2.60;0.80;;;26.90;59.00;;;;;;4993736;28;20429;-69
2022/07/11 10:21:53;;;;;;;1.60;0.80;;;26.80;58.20;;;;;;4993705;28;20435;-68
2022/07/11 10:24:31;;;;;;;1.70;0.90;;;26.70;58.70;;;;;;4993720;28;20432;-68
2022/07/11 10:27:03;;;;;;;1.13;0.80;;;26.40;59.00;;;;;;4993557;28;20476;-68
2022/07/11 10:29:36;;;;;;;1.33;0.57;;;26.20;59.70;;;;;;4993341;28;20424;-68
2022/07/11 10:32:10;;;;;;;1.67;0.80;;;26.00;60.30;;;;;;4993213;28;20851;-68
2022/07/11 10:34:37;;;;;;;4.83;1.00;;;25.90;61.10;;;;;;4994904;28;20436;-68
2022/07/11 10:37:05;;;;;;;2.93;0.87;;;25.80;60.80;;;;;;4997651;28;20472;-68
2022/07/11 10:39:34;;;;;;;1.53;0.60;;;25.70;60.90;;;;;;4997041;28;20452;-68
2022/07/11 10:42:03;;;;;;;1.27;0.60;;;25.70;61.90;;;;;;4997039;28;20452;-68
2022/07/11 10:44:51;;;;;;;1.17;0.80;;;25.70;62.80;;;;;;4996911;28;20444;-68
2022/07/11 10:47:36;;;;;;;0.80;0.53;;;25.70;63.50;;;;;;4996750;28;20464;-68
2022/07/11 10:50:08;;;;;;;1.17;0.70;;;25.70;62.60;;;;;;4996584;28;21089;-68
2022/07/11 10:52:37;;;;;;;0.80;0.50;;;25.70;63.00;;;;;;4996602;28;20906;-68
2022/07/11 10:55:22;;;;;;;2.60;0.57;;;25.60;62.70;;;;;;4996885;28;20452;-68
2022/07/11 10:58:01;;;;;;;3.93;0.50;;;25.60;63.10;;;;;;4996551;28;20879;-69
2022/07/11 11:00:31;;;;;;;5.40;1.13;;;25.40;63.10;;;;;;4996710;28;20433;-69
2022/07/11 11:03:05;;;;;;;1.30;0.63;;;25.30;63.50;;;;;;4996357;28;20812;-69
2022/07/11 11:05:52;;;;;;;7.57;0.93;;;25.10;64.10;;;;;;4996573;28;20490;-69
2022/07/11 11:08:42;;;;;;;0.70;0.63;;;25.00;65.20;;;;;;4996269;28;20476;-68
2022/07/11 11:11:24;;;;;;;1.00;0.67;;;24.90;65.60;;;;;;4996223;28;20969;-68
2022/07/11 11:14:19;;;;;;;1.00;0.50;;;24.90;66.40;;;;;;4995466;28;20479;-68
2022/07/11 11:16:48;;;;;;;2.00;0.47;;;24.80;66.30;;;;;;4996328;28;20555;-68
2022/07/11 11:19:55;;;;;;;1.40;0.50;;;24.80;66.00;;;;;;4996263;28;20480;-68
2022/07/11 11:22:25;;;;;;;1.10;0.50;;;24.80;65.10;;;;;;4997956;28;20456;-68
2022/07/11 11:24:53;;;;;;;0.77;0.43;;;24.80;65.60;;;;;;4997561;28;20456;-68
2022/07/11 11:27:22;;;;;;;2.60;1.00;;;24.80;65.20;;;;;;4997245;28;20468;-68
2022/07/11 11:29:53;;;;;;;1.43;0.50;;;24.90;65.50;;;;;;4996153;28;20444;-69
2022/07/11 11:32:23;;;;;;;3.70;0.57;;;24.90;65.20;;;;;;4995681;28;20460;-69
2022/07/11 11:34:50;;;;;;;0.60;0.60;;;25.10;65.00;;;;;;4995681;28;20941;-69
2022/07/11 11:37:18;;;;;;;1.07;0.80;;;25.30;64.20;;;;;;4995476;28;21001;-69
2022/07/11 11:39:45;;;;;;;1.13;0.57;;;25.40;63.50;;;;;;4995786;28;20448;-69
2022/07/11 11:42:16;;;;;;;3.13;0.40;;;25.70;63.20;;;;;;4995848;28;20448;-69
2022/07/11 11:44:51;;;;;;;3.07;0.63;;;26.00;62.00;;;;;;4995608;28;20440;-69
2022/07/11 11:47:18;;;;;;;3.50;0.60;;;26.40;61.30;;;;;;4995668;28;20831;-69
2022/07/11 11:49:48;;;;;;;2.17;0.40;;;26.70;59.90;;;;;;4995789;28;20448;-69
2022/07/11 11:52:16;;;;;;;1.70;0.50;;;27.00;58.60;;;;;;4995851;28;20448;-69
2022/07/11 11:54:44;;;;;;;1.70;0.60;;;27.40;57.90;;;;;;4995512;28;20444;-69
2022/07/11 11:57:12;;;;;;;0.97;0.47;;;27.80;56.20;;;;;;4995286;28;20480;-69
2022/07/11 11:59:39;;;;;;;1.57;0.40;;;28.00;56.00;;;;;;4996321;28;20811;-69
2022/07/11 12:02:06;;;;;;;0.37;0.30;;;28.20;54.60;;;;;;4995356;28;20453;-69
2022/07/11 12:04:36;;;;;;;2.10;0.63;;;28.40;54.00;;;;;;4995405;28;20800;-69
2022/07/11 12:07:05;;;;;;;0.40;0.30;;;28.70;53.00;;;;;;4994973;28;20981;-69
2022/07/11 12:09:47;;;;;;;0.83;0.30;;;28.70;51.00;;;;;;4995791;28;20484;-69
2022/07/11 12:15:03;;;;;;;2.80;0.40;;;29.00;51.90;;;;;;4995373;28;20408;-69
2022/07/11 12:17:30;;;;;;;0.70;0.50;;;29.10;50.70;;;;;;4994920;28;20472;-69
2022/07/11 12:19:57;;;;;;;2.07;0.40;;;29.20;50.20;;;;;;4995056;28;20451;-69
2022/07/11 12:22:27;;;;;;;3.87;0.50;;;29.10;49.70;;;;;;4994770;28;20938;-69
2022/07/11 12:24:55;;;;;;;2.97;0.67;;;29.10;49.70;;;;;;4995000;28;20463;-69
2022/07/11 12:27:22;;;;;;;1.90;0.30;;;29.10;50.60;;;;;;4994779;28;20472;-69
2022/07/11 12:29:51;;;;;;;6.70;0.70;;;29.10;50.50;;;;;;4994876;28;20455;-69
2022/07/11 12:32:19;;;;;;;1.50;0.40;;;29.10;50.30;;;;;;4994579;28;20464;-69
2022/07/11 12:34:47;;;;;;;0.40;0.37;;;29.10;50.30;;;;;;4994507;28;20958;-69
2022/07/11 12:37:16;;;;;;;13.17;1.20;;;29.00;50.10;;;;;;4994365;28;20829;-69
2022/07/11 12:39:52;;;;;;;13.93;1.40;;;28.90;50.20;;;;;;4994699;28;20515;-69
2022/07/11 12:42:24;;;;;;;5.33;0.80;;;28.70;49.70;;;;;;4994847;28;20455;-69
2022/07/11 12:45:07;;;;;;;4.43;0.80;;;28.50;50.10;;;;;;4994417;28;20448;-69
2022/07/11 12:47:35;;;;;;;1.50;0.43;;;28.40;50.70;;;;;;4994901;28;20526;-69
2022/07/11 12:50:12;;;;;;;2.10;0.60;;;28.40;51.30;;;;;;4994632;28;20448;-69
2022/07/11 12:52:40;;;;;;;0.77;0.40;;;28.40;51.50;;;;;;4994283;28;20460;-69
2022/07/11 12:55:11;;;;;;;3.53;0.60;;;28.50;51.50;;;;;;4994625;28;20451;-69
2022/07/11 12:57:38;;;;;;;3.13;0.63;;;28.60;51.50;;;;;;4994102;28;20476;-69
2022/07/11 13:00:16;;;;;;;2.97;0.60;;;28.50;51.30;;;;;;4994668;28;20465;-69
2022/07/11 13:02:49;;;;;;;0.90;0.43;;;28.40;52.20;;;;;;4994673;28;20446;-69